createdAt,value
2022-12-22T00:00:21.909Z,24.10
2022-12-22T00:03:09.119Z,21.00
2022-12-22T00:05:56.643Z,21.38
2022-12-22T00:08:43.640Z,23.08
2022-12-22T00:11:31.671Z,19.90
2022-12-22T00:14:18.554Z,22.48
2022-12-22T00:17:06.482Z,21.40
2022-12-22T00:19:53.988Z,19.20
2022-12-22T00:22:45.033Z,20.20
2022-12-22T00:25:34.596Z,18.88
2022-12-22T00:28:30.606Z,21.58
2022-12-22T00:31:17.324Z,21.58
2022-12-22T00:34:04.372Z,25.50
2022-12-22T00:36:50.807Z,27.20
2022-12-22T00:39:37.748Z,22.70
2022-12-22T00:42:24.265Z,24.33
2022-12-22T00:45:11.035Z,22.52
2022-12-22T00:47:58.581Z,19.70
2022-12-22T00:50:53.803Z,19.92
2022-12-22T00:53:41.213Z,18.92
2022-12-22T00:56:29.088Z,21.90
2022-12-22T00:59:17.868Z,25.20
2022-12-22T01:02:05.238Z,28.85
2022-12-22T01:04:51.974Z,22.25
2022-12-22T01:07:41.859Z,22.02
2022-12-22T01:10:33.106Z,19.80
2022-12-22T01:13:20.580Z,21.00
2022-12-22T01:16:07.418Z,19.10
2022-12-22T01:18:53.779Z,20.38
2022-12-22T01:21:40.712Z,19.40
2022-12-22T01:24:31.926Z,22.45
2022-12-22T01:27:18.979Z,21.27
2022-12-22T01:30:05.441Z,20.58
2022-12-22T01:32:51.961Z,21.88
2022-12-22T01:35:45.581Z,23.58
2022-12-22T01:38:32.223Z,23.75
2022-12-22T01:41:20.401Z,24.23
2022-12-22T01:44:09.217Z,24.52
2022-12-22T01:47:03.635Z,21.20
2022-12-22T01:50:02.629Z,23.83
2022-12-22T01:52:54.139Z,29.88
2022-12-22T01:55:43.873Z,27.88
2022-12-22T01:58:45.500Z,26.63
2022-12-22T02:01:32.562Z,26.30
2022-12-22T02:04:20.542Z,27.08
2022-12-22T02:07:10.431Z,28.00
2022-12-22T02:10:16.910Z,23.80
2022-12-22T02:13:28.576Z,19.92
2022-12-22T02:16:57.856Z,19.63
2022-12-22T02:20:26.521Z,21.17
2022-12-22T02:23:40.584Z,18.92
2022-12-22T02:26:43.226Z,17.73
2022-12-22T02:29:32.375Z,17.88
2022-12-22T02:32:19.318Z,18.30
2022-12-22T02:35:06.148Z,20.27
2022-12-22T02:38:14.938Z,16.95
2022-12-22T02:41:06.649Z,18.45
2022-12-22T02:44:05.169Z,21.70
2022-12-22T02:47:11.326Z,24.55
2022-12-22T02:50:04.968Z,22.13
2022-12-22T02:52:56.396Z,21.30
2022-12-22T02:55:44.216Z,21.20
2022-12-22T02:58:32.183Z,22.27
2022-12-22T03:01:20.900Z,23.20
2022-12-22T03:04:08.017Z,24.27
2022-12-22T03:06:54.320Z,25.70
2022-12-22T03:09:40.949Z,27.35
2022-12-22T03:12:27.701Z,26.88
2022-12-22T03:15:14.792Z,27.48
2022-12-22T03:18:01.290Z,26.20
2022-12-22T03:20:47.953Z,24.15
2022-12-22T03:23:34.732Z,23.42
2022-12-22T03:26:02.938Z,24.08
2022-12-22T03:28:31.583Z,24.63
2022-12-22T03:31:05.998Z,23.08
2022-12-22T03:33:34.780Z,21.88
2022-12-22T03:36:03.195Z,22.10
2022-12-22T03:38:31.886Z,22.30
2022-12-22T03:40:59.822Z,23.33
2022-12-22T03:43:47.233Z,20.02
2022-12-22T03:46:17.372Z,19.80
2022-12-22T03:49:06.875Z,19.00
2022-12-22T03:51:35.507Z,18.65
2022-12-22T03:54:04.737Z,19.77
2022-12-22T03:56:33.893Z,19.42
2022-12-22T03:59:02.068Z,18.58
2022-12-22T04:01:30.563Z,17.17
2022-12-22T04:03:59.267Z,16.80
2022-12-22T04:06:27.582Z,17.80
2022-12-22T04:08:55.513Z,18.40
2022-12-22T04:11:41.769Z,18.98
2022-12-22T04:14:10.920Z,17.05
2022-12-22T04:16:39.145Z,17.00
2022-12-22T04:19:08.716Z,18.15
2022-12-22T04:21:37.470Z,17.05
2022-12-22T04:24:06.265Z,17.25
2022-12-22T04:26:35.669Z,19.50
2022-12-22T04:29:03.860Z,18.73
2022-12-22T04:31:32.107Z,20.00
2022-12-22T04:34:00.186Z,19.13
2022-12-22T04:36:29.058Z,20.65
2022-12-22T04:38:57.018Z,22.05
2022-12-22T04:41:25.028Z,20.67
2022-12-22T04:43:53.446Z,19.35
2022-12-22T04:46:21.425Z,19.30
2022-12-22T04:48:53.136Z,18.60
2022-12-22T04:51:25.045Z,19.73
2022-12-22T04:53:53.888Z,17.40
2022-12-22T04:56:21.847Z,16.13
2022-12-22T04:58:50.272Z,16.73
2022-12-22T05:01:19.166Z,17.80
2022-12-22T05:03:48.428Z,16.70
2022-12-22T05:06:17.014Z,15.23
2022-12-22T05:08:45.414Z,16.20
2022-12-22T05:11:13.372Z,14.07
2022-12-22T05:13:41.396Z,15.32
2022-12-22T05:16:15.193Z,14.55
2022-12-22T05:18:46.461Z,16.65
2022-12-22T05:21:21.168Z,16.48
2022-12-22T05:23:50.568Z,17.15
2022-12-22T05:26:19.903Z,20.27
2022-12-22T05:28:48.653Z,15.98
2022-12-22T05:31:21.189Z,18.45
2022-12-22T05:33:49.881Z,15.70
2022-12-22T05:36:18.242Z,18.08
2022-12-22T05:38:46.676Z,14.73
2022-12-22T05:41:14.891Z,13.82
2022-12-22T05:43:43.366Z,15.77
2022-12-22T05:46:12.411Z,15.65
2022-12-22T05:48:41.054Z,15.82
2022-12-22T05:51:10.948Z,36.17
2022-12-22T05:53:40.060Z,17.77
2022-12-22T05:56:08.611Z,16.02
2022-12-22T05:58:39.280Z,16.67
2022-12-22T06:01:07.822Z,12.75
2022-12-22T06:03:36.003Z,13.90
2022-12-22T06:06:05.390Z,19.48
2022-12-22T06:08:33.777Z,17.15
2022-12-22T06:11:01.786Z,19.50
2022-12-22T06:13:29.710Z,35.08
2022-12-22T06:15:57.688Z,29.95
2022-12-22T06:18:26.988Z,31.33
2022-12-22T06:20:54.968Z,28.75
2022-12-22T06:23:23.784Z,24.80
2022-12-22T06:26:01.936Z,16.58
2022-12-22T06:28:31.308Z,19.55
2022-12-22T06:30:59.888Z,16.80
2022-12-22T06:33:27.937Z,16.88
2022-12-22T06:35:58.834Z,19.55
2022-12-22T06:38:28.745Z,20.35
2022-12-22T06:40:57.139Z,21.25
2022-12-22T06:43:26.066Z,20.83
2022-12-22T06:45:54.568Z,20.30
2022-12-22T06:48:22.899Z,20.85
2022-12-22T06:50:50.929Z,20.88
2022-12-22T06:53:19.414Z,17.42
2022-12-22T06:55:47.944Z,20.90
2022-12-22T06:58:15.902Z,21.65
2022-12-22T07:00:48.620Z,22.17
2022-12-22T07:03:17.397Z,23.67
2022-12-22T07:05:45.786Z,23.45
2022-12-22T07:08:14.256Z,23.52
2022-12-22T07:10:58.060Z,25.67
2022-12-22T07:13:29.927Z,25.50
2022-12-22T07:16:01.121Z,19.13
2022-12-22T07:18:35.402Z,21.10
2022-12-22T07:21:07.177Z,17.92
2022-12-22T07:23:35.676Z,24.02
2022-12-22T07:26:04.861Z,22.90
2022-12-22T07:28:37.353Z,17.45
2022-12-22T07:31:07.128Z,18.43
2022-12-22T07:33:36.218Z,17.05
2022-12-22T07:36:22.539Z,17.38
2022-12-22T07:39:09.001Z,17.48
2022-12-22T07:41:57.338Z,25.02
2022-12-22T07:44:25.899Z,22.33
2022-12-22T07:46:54.027Z,24.70
2022-12-22T07:49:41.261Z,24.10
2022-12-22T07:52:09.942Z,22.60
2022-12-22T07:54:41.734Z,25.40
2022-12-22T07:57:11.013Z,25.60
2022-12-22T07:59:39.092Z,26.13
2022-12-22T08:02:11.840Z,25.08
2022-12-22T08:04:41.021Z,29.30
2022-12-22T08:07:09.141Z,22.13
2022-12-22T08:09:37.896Z,22.13
2022-12-22T08:12:06.485Z,24.45
2022-12-22T08:14:34.975Z,24.63
2022-12-22T08:17:04.219Z,25.75
2022-12-22T08:19:51.459Z,26.05
2022-12-22T08:22:19.708Z,24.83
2022-12-22T08:25:06.543Z,24.42
2022-12-22T08:27:40.715Z,20.73
2022-12-22T08:30:10.129Z,22.17
2022-12-22T08:32:41.023Z,23.55
2022-12-22T08:35:28.979Z,22.40
2022-12-22T08:37:57.077Z,22.65
2022-12-22T08:40:45.774Z,19.58
2022-12-22T08:43:15.083Z,19.95
2022-12-22T08:45:43.495Z,18.83
2022-12-22T08:48:11.582Z,16.48
2022-12-22T08:50:40.219Z,21.45
2022-12-22T08:53:29.632Z,20.23
2022-12-22T08:55:58.051Z,23.67
2022-12-22T08:58:26.334Z,27.02
2022-12-22T09:00:54.573Z,24.33
2022-12-22T09:03:23.090Z,34.13
2022-12-22T09:05:51.217Z,27.73
2022-12-22T09:08:19.596Z,31.50
2022-12-22T09:10:47.787Z,22.05
2022-12-22T09:13:16.255Z,20.08
2022-12-22T09:15:44.313Z,19.17
2022-12-22T09:18:12.904Z,19.13
2022-12-22T09:20:41.287Z,23.20
2022-12-22T09:23:10.355Z,24.38
2022-12-22T09:25:38.938Z,23.45
2022-12-22T09:28:08.519Z,22.95
2022-12-22T09:30:36.440Z,25.17
2022-12-22T09:33:04.964Z,21.98
2022-12-22T09:35:33.655Z,23.83
2022-12-22T09:38:02.316Z,18.90
2022-12-22T09:40:32.749Z,12.43
2022-12-22T09:43:01.278Z,13.57
2022-12-22T09:45:29.470Z,12.65
2022-12-22T09:47:58.389Z,9.82
2022-12-22T09:50:28.061Z,9.45
2022-12-22T09:53:03.519Z,9.85
2022-12-22T09:55:44.196Z,9.00
2022-12-22T09:58:26.640Z,9.70
2022-12-22T10:01:18.523Z,10.52
2022-12-22T10:03:58.260Z,17.05
2022-12-22T10:06:36.806Z,15.05
2022-12-22T10:09:48.107Z,17.63
2022-12-22T10:12:16.072Z,17.83
2022-12-22T10:14:48.212Z,17.45
2022-12-22T10:17:23.220Z,17.58
2022-12-22T10:19:54.003Z,18.23
2022-12-22T10:22:32.267Z,18.65
2022-12-22T10:25:03.806Z,18.58
2022-12-22T10:27:42.958Z,18.20
2022-12-22T10:30:24.988Z,18.25
2022-12-22T10:33:03.757Z,18.08
2022-12-22T10:35:49.487Z,17.15
2022-12-22T10:38:31.147Z,18.45
2022-12-22T10:41:20.452Z,16.55
2022-12-22T10:44:16.231Z,17.88
2022-12-22T10:46:49.321Z,16.95
2022-12-22T10:49:30.483Z,15.13
2022-12-22T10:52:29.614Z,14.35
2022-12-22T10:55:21.886Z,12.85
2022-12-22T10:57:50.699Z,10.82
2022-12-22T11:00:29.192Z,9.05
2022-12-22T11:03:00.461Z,7.03
2022-12-22T11:05:30.218Z,8.50
2022-12-22T11:08:07.442Z,9.32
2022-12-22T11:10:46.371Z,8.80
2022-12-22T11:13:53.548Z,10.68
2022-12-22T11:16:41.663Z,8.95
2022-12-22T11:19:27.826Z,7.47
2022-12-22T11:22:26.830Z,7.53
2022-12-22T11:25:05.951Z,4.35
2022-12-22T11:27:46.935Z,5.25
2022-12-22T11:30:19.372Z,4.40
2022-12-22T11:32:59.639Z,5.03
2022-12-22T11:36:01.333Z,5.68
2022-12-22T11:38:37.876Z,4.45
2022-12-22T11:41:37.252Z,4.57
2022-12-22T11:44:08.436Z,7.53
2022-12-22T11:46:46.601Z,5.57
2022-12-22T11:49:43.621Z,5.63
2022-12-22T11:52:17.592Z,6.03
2022-12-22T11:55:22.528Z,5.88
2022-12-22T11:58:16.279Z,7.43
2022-12-22T12:03:51.358Z,10.95
2022-12-22T12:06:35.027Z,12.63
2022-12-22T12:09:29.061Z,12.18
2022-12-22T12:12:05.332Z,11.30
2022-12-22T12:14:48.376Z,10.20
2022-12-22T12:17:17.171Z,7.65
2022-12-22T12:20:36.731Z,6.85
2022-12-22T12:23:28.873Z,6.93
2022-12-22T12:26:31.379Z,7.30
2022-12-22T12:29:37.642Z,5.82
2022-12-22T12:32:17.117Z,6.07
2022-12-22T12:34:50.266Z,4.93
2022-12-22T12:40:30.308Z,5.13
2022-12-22T12:43:00.130Z,4.93
2022-12-22T12:45:43.930Z,4.50
2022-12-22T12:48:39.354Z,4.78
2022-12-22T12:51:49.712Z,4.22
2022-12-22T12:54:33.066Z,4.95
2022-12-22T12:57:03.715Z,4.95
2022-12-22T12:59:41.729Z,7.35
2022-12-22T13:02:28.489Z,7.45
2022-12-22T13:05:14.767Z,8.32
2022-12-22T13:08:18.494Z,7.28
2022-12-22T13:10:56.059Z,7.45
2022-12-22T13:13:25.162Z,7.82
2022-12-22T13:16:02.448Z,10.73
2022-12-22T13:18:49.879Z,12.32
2022-12-22T13:27:14.259Z,20.90
2022-12-22T13:29:45.836Z,23.55
2022-12-22T13:30:51.032Z,17.02
2022-12-22T13:32:26.127Z,24.30
2022-12-22T13:35:31.408Z,23.65
2022-12-22T13:38:01.217Z,21.55
2022-12-22T13:40:49.490Z,19.48
2022-12-22T13:43:20.388Z,18.73
2022-12-22T13:45:55.566Z,18.17
2022-12-22T13:48:44.765Z,15.13
2022-12-22T13:51:29.625Z,14.25
2022-12-22T13:54:10.852Z,13.55
2022-12-22T13:56:46.264Z,11.70
2022-12-22T13:59:35.708Z,11.07
2022-12-22T14:02:10.215Z,11.02
2022-12-22T14:04:41.716Z,12.23
2022-12-22T14:07:20.599Z,12.20
2022-12-22T14:09:50.304Z,13.80
2022-12-22T14:12:23.553Z,15.82
2022-12-22T14:17:35.066Z,15.40
2022-12-22T14:20:36.001Z,15.85
2022-12-22T14:23:07.530Z,16.50
2022-12-22T14:25:42.207Z,20.55
2022-12-22T14:28:43.323Z,22.33
2022-12-22T14:31:13.277Z,24.65
2022-12-22T14:33:52.275Z,28.60
2022-12-22T14:36:25.731Z,26.30
2022-12-22T14:38:57.389Z,29.55
2022-12-22T14:42:01.841Z,29.52
2022-12-22T14:44:37.963Z,30.88
2022-12-22T14:47:18.501Z,28.92
2022-12-22T14:49:46.980Z,32.70
2022-12-22T14:52:21.173Z,33.75
2022-12-22T14:54:52.209Z,35.60
2022-12-22T14:57:46.226Z,33.78
2022-12-22T15:00:39.550Z,33.80
2022-12-22T15:03:33.280Z,33.60
2022-12-22T15:06:30.267Z,34.15
2022-12-22T15:09:13.492Z,34.53
2022-12-22T15:12:02.052Z,36.75
2022-12-22T15:14:38.424Z,37.97
2022-12-22T15:17:16.892Z,37.03
2022-12-22T15:19:44.987Z,37.53
2022-12-22T15:22:13.630Z,32.17
2022-12-22T15:24:41.649Z,34.65
2022-12-22T15:27:10.056Z,38.95
2022-12-22T15:29:39.253Z,53.20
2022-12-22T15:32:12.953Z,59.28
2022-12-22T15:34:42.564Z,49.90
2022-12-22T15:37:13.242Z,44.95
2022-12-22T15:39:41.840Z,48.47
2022-12-22T15:42:09.758Z,43.30
2022-12-22T15:44:39.212Z,43.22
2022-12-22T15:47:11.209Z,46.35
2022-12-22T15:49:39.711Z,47.58
2022-12-22T15:52:11.169Z,43.60
2022-12-22T15:54:40.066Z,46.67
2022-12-22T15:57:13.300Z,47.67
2022-12-22T15:59:42.202Z,54.40
2022-12-22T16:02:15.807Z,71.85
2022-12-22T16:04:44.447Z,100.95
2022-12-22T16:07:13.282Z,90.97
2022-12-22T16:09:44.544Z,65.47
2022-12-22T16:12:21.404Z,48.50
2022-12-22T16:14:55.609Z,57.63
2022-12-22T16:17:28.082Z,92.68
2022-12-22T16:19:56.139Z,56.40
2022-12-22T16:22:33.737Z,56.17
2022-12-22T16:25:04.132Z,56.15
2022-12-22T16:27:33.375Z,53.80
2022-12-22T16:30:01.741Z,61.42
2022-12-22T16:32:32.522Z,63.45
2022-12-22T16:35:10.867Z,70.82
2022-12-22T16:37:39.663Z,74.32
2022-12-22T16:40:08.415Z,86.43
2022-12-22T16:45:28.887Z,49.25
2022-12-22T16:48:05.844Z,49.03
2022-12-22T16:50:34.206Z,52.47
2022-12-22T16:53:05.390Z,57.72
2022-12-22T16:55:37.682Z,46.17
2022-12-22T16:58:13.536Z,33.90
2022-12-22T17:00:45.914Z,32.55
2022-12-22T17:03:17.343Z,33.50
2022-12-22T17:05:56.451Z,36.10
2022-12-22T17:08:32.248Z,38.58
2022-12-22T17:11:10.061Z,34.95
2022-12-22T17:13:39.984Z,32.63
2022-12-22T17:16:23.572Z,40.80
2022-12-22T17:21:20.785Z,48.15
2022-12-22T17:23:52.496Z,57.13
2022-12-22T17:26:24.936Z,61.55
2022-12-22T17:28:53.986Z,78.18
2022-12-22T17:31:23.358Z,64.38
2022-12-22T17:33:51.945Z,60.42
2022-12-22T17:36:40.332Z,80.28
2022-12-22T17:39:17.186Z,98.43
2022-12-22T17:41:49.037Z,99.07
2022-12-22T17:47:42.693Z,100.47
2022-12-22T17:50:14.330Z,81.00
2022-12-22T17:52:44.695Z,86.95
2022-12-22T17:56:05.386Z,79.80
2022-12-22T17:58:15.990Z,72.20
2022-12-22T18:01:25.921Z,69.03
2022-12-22T18:03:55.446Z,65.53
2022-12-22T18:06:27.881Z,61.03
2022-12-22T18:08:57.194Z,61.28
2022-12-22T18:11:25.748Z,61.85
2022-12-22T18:13:57.443Z,64.20
2022-12-22T18:16:25.725Z,94.15
2022-12-22T18:18:54.070Z,82.22
2022-12-22T18:21:25.029Z,74.93
2022-12-22T18:23:53.363Z,74.43
2022-12-22T18:26:27.712Z,78.32
2022-12-22T18:28:57.237Z,84.85
2022-12-22T18:31:26.292Z,98.70
2022-12-22T18:33:55.196Z,88.22
2022-12-22T18:36:29.867Z,93.85
2022-12-22T18:39:00.721Z,90.20
2022-12-22T18:41:34.824Z,95.32
2022-12-22T18:44:03.346Z,93.32
2022-12-22T18:46:31.992Z,120.15
2022-12-22T18:49:05.339Z,109.78
2022-12-22T18:51:34.820Z,98.18
2022-12-22T18:54:03.683Z,96.88
2022-12-22T18:56:32.079Z,89.47
2022-12-22T18:59:00.222Z,85.57
2022-12-22T19:01:29.267Z,85.78
2022-12-22T19:03:58.951Z,88.45
2022-12-22T19:06:27.604Z,86.07
2022-12-22T19:08:56.406Z,73.03
2022-12-22T19:11:28.075Z,76.05
2022-12-22T19:13:56.475Z,69.22
2022-12-22T19:16:27.830Z,76.90
2022-12-22T19:18:58.026Z,66.82
2022-12-22T19:21:26.502Z,73.63
2022-12-22T19:23:54.601Z,67.05
2022-12-22T19:26:28.244Z,62.28
2022-12-22T19:29:00.753Z,60.05
2022-12-22T19:31:34.576Z,58.65
2022-12-22T19:34:12.797Z,66.07
2022-12-22T19:36:40.985Z,65.25
2022-12-22T19:39:08.946Z,69.90
2022-12-22T19:41:53.672Z,72.80
2022-12-22T19:44:31.220Z,102.38
2022-12-22T19:47:02.085Z,131.38
2022-12-22T19:49:30.327Z,189.63
2022-12-22T19:51:59.231Z,94.35
2022-12-22T19:54:28.477Z,106.65
2022-12-22T19:56:57.127Z,99.90
2022-12-22T19:59:40.244Z,93.57
2022-12-22T20:02:26.635Z,98.15
2022-12-22T20:04:55.617Z,110.82
2022-12-22T20:07:26.801Z,121.18
2022-12-22T20:09:55.241Z,110.13
2022-12-22T20:12:33.314Z,101.05
2022-12-22T20:15:05.578Z,90.68
2022-12-22T20:17:34.287Z,105.22
2022-12-22T20:20:02.290Z,125.55
2022-12-22T20:22:56.875Z,107.70
2022-12-22T20:25:28.620Z,106.57
2022-12-22T20:27:57.483Z,69.95
2022-12-22T20:30:49.421Z,67.90
2022-12-22T20:33:23.035Z,73.10
2022-12-22T20:35:53.306Z,70.38
2022-12-22T20:38:42.068Z,62.58
2022-12-22T20:41:10.876Z,61.85
2022-12-22T20:43:39.342Z,62.40
2022-12-22T20:46:26.081Z,65.45
2022-12-22T20:48:57.166Z,66.13
2022-12-22T20:51:29.075Z,79.13
2022-12-22T20:53:58.291Z,70.18
2022-12-22T20:56:36.102Z,69.60
2022-12-22T20:59:24.407Z,73.45
2022-12-22T21:01:53.404Z,65.22
2022-12-22T21:04:22.428Z,66.13
2022-12-22T21:06:53.345Z,57.75
2022-12-22T21:09:23.292Z,54.63
2022-12-22T21:11:51.333Z,53.05
2022-12-22T21:14:19.276Z,48.25
2022-12-22T21:16:48.956Z,44.13
2022-12-22T21:19:18.505Z,38.65
2022-12-22T21:21:47.286Z,41.60
2022-12-22T21:24:15.850Z,40.25
2022-12-22T21:26:55.465Z,45.45
2022-12-22T21:29:25.447Z,46.15
2022-12-22T21:31:53.591Z,34.05
2022-12-22T21:34:22.740Z,39.78
2022-12-22T21:36:59.349Z,38.55
2022-12-22T21:39:27.232Z,42.65
2022-12-22T21:42:02.013Z,59.75
2022-12-22T21:44:31.699Z,60.28
2022-12-22T21:47:00.851Z,57.33
2022-12-22T21:49:31.594Z,54.30
2022-12-22T21:52:00.271Z,51.72
2022-12-22T21:54:28.750Z,64.95
2022-12-22T21:56:57.221Z,53.38
2022-12-22T21:59:25.969Z,50.85
2022-12-22T22:01:56.560Z,38.25
2022-12-22T22:04:25.314Z,42.17
2022-12-22T22:06:53.845Z,33.78
2022-12-22T22:09:21.853Z,31.77
2022-12-22T22:12:09.223Z,31.25
2022-12-22T22:14:37.691Z,29.75
2022-12-22T22:17:06.588Z,29.85
2022-12-22T22:19:34.632Z,30.40
2022-12-22T22:22:03.708Z,41.17
2022-12-22T22:24:31.823Z,40.80
2022-12-22T22:26:59.953Z,37.90
2022-12-22T22:29:28.154Z,41.05
2022-12-22T22:31:56.616Z,46.55
2022-12-22T22:34:24.815Z,46.88
2022-12-22T22:36:52.972Z,47.40
2022-12-22T22:39:23.488Z,36.05
2022-12-22T22:41:51.883Z,30.50
2022-12-22T22:44:20.229Z,27.88
2022-12-22T22:46:48.218Z,29.67
2022-12-22T22:49:16.279Z,26.48
2022-12-22T22:51:44.722Z,30.35
2022-12-22T22:54:13.323Z,31.33
2022-12-22T22:56:42.274Z,29.83
2022-12-22T22:59:36.312Z,25.08
2022-12-22T23:02:05.356Z,24.40
2022-12-22T23:04:34.222Z,24.38
2022-12-22T23:07:02.613Z,22.33
2022-12-22T23:09:31.163Z,25.25
2022-12-22T23:11:59.225Z,25.55
2022-12-22T23:14:27.233Z,23.70
2022-12-22T23:16:55.963Z,25.10
2022-12-22T23:19:24.961Z,28.38
2022-12-22T23:21:52.989Z,30.00
2022-12-22T23:24:21.610Z,29.73
2022-12-22T23:26:49.653Z,31.27
2022-12-22T23:29:17.654Z,28.15
2022-12-22T23:31:46.948Z,29.65
2022-12-22T23:34:15.206Z,30.35
2022-12-22T23:36:43.665Z,26.73
2022-12-22T23:39:11.628Z,27.42
2022-12-22T23:41:39.889Z,25.92
2022-12-22T23:44:08.187Z,27.70
2022-12-22T23:46:37.817Z,27.17
2022-12-22T23:49:06.508Z,27.17
2022-12-22T23:51:34.490Z,27.90
2022-12-22T23:54:02.893Z,27.10
2022-12-22T23:56:31.293Z,28.23
2022-12-22T23:58:59.899Z,28.02
